sensor_id;sensor_type;location;lat;lon;timestamp;P1;durP1;ratioP1;P2;durP2;ratioP2
26598;SDS011;14240;51.064;16.612;2023-11-21T00:01:31;18.55;;;6.00;;
26598;SDS011;14240;51.064;16.612;2023-11-21T00:03:57;12.77;;;5.13;;
26598;SDS011;14240;51.064;16.612;2023-11-21T00:06:23;11.90;;;4.75;;
26598;SDS011;14240;51.064;16.612;2023-11-21T00:08:50;10.52;;;3.95;;
26598;SDS011;14240;51.064;16.612;2023-11-21T00:11:15;15.23;;;4.07;;
26598;SDS011;14240;51.064;16.612;2023-11-21T00:13:41;12.48;;;4.85;;
26598;SDS011;14240;51.064;16.612;2023-11-21T00:16:07;12.90;;;4.68;;
26598;SDS011;14240;51.064;16.612;2023-11-21T00:18:33;10.30;;;4.32;;
26598;SDS011;14240;51.064;16.612;2023-11-21T00:20:59;12.02;;;4.65;;
26598;SDS011;14240;51.064;16.612;2023-11-21T00:23:24;11.18;;;5.10;;
26598;SDS011;14240;51.064;16.612;2023-11-21T00:25:50;14.43;;;5.72;;
26598;SDS011;14240;51.064;16.612;2023-11-21T00:28:16;21.40;;;6.47;;
26598;SDS011;14240;51.064;16.612;2023-11-21T00:30:41;15.55;;;6.68;;
26598;SDS011;14240;51.064;16.612;2023-11-21T00:33:07;14.00;;;5.70;;
26598;SDS011;14240;51.064;16.612;2023-11-21T00:35:33;14.68;;;5.95;;
26598;SDS011;14240;51.064;16.612;2023-11-21T00:37:58;15.43;;;5.63;;
26598;SDS011;14240;51.064;16.612;2023-11-21T00:40:24;13.70;;;5.72;;
26598;SDS011;14240;51.064;16.612;2023-11-21T00:42:50;16.02;;;7.00;;
26598;SDS011;14240;51.064;16.612;2023-11-21T00:45:15;18.17;;;7.43;;
26598;SDS011;14240;51.064;16.612;2023-11-21T00:47:41;13.68;;;7.00;;
26598;SDS011;14240;51.064;16.612;2023-11-21T00:50:07;16.20;;;6.45;;
26598;SDS011;14240;51.064;16.612;2023-11-21T00:52:34;18.30;;;7.07;;
26598;SDS011;14240;51.064;16.612;2023-11-21T00:55:01;15.77;;;5.50;;
26598;SDS011;14240;51.064;16.612;2023-11-21T00:57:28;14.13;;;6.05;;
26598;SDS011;14240;51.064;16.612;2023-11-21T00:59:54;14.65;;;5.68;;
26598;SDS011;14240;51.064;16.612;2023-11-21T01:02:20;15.57;;;5.45;;
26598;SDS011;14240;51.064;16.612;2023-11-21T01:04:45;16.55;;;5.85;;
26598;SDS011;14240;51.064;16.612;2023-11-21T01:07:12;20.07;;;6.23;;
26598;SDS011;14240;51.064;16.612;2023-11-21T01:09:38;15.95;;;6.32;;
26598;SDS011;14240;51.064;16.612;2023-11-21T01:12:04;16.33;;;6.38;;
26598;SDS011;14240;51.064;16.612;2023-11-21T01:14:30;13.75;;;5.70;;
26598;SDS011;14240;51.064;16.612;2023-11-21T01:16:56;18.10;;;6.60;;
26598;SDS011;14240;51.064;16.612;2023-11-21T01:19:21;20.27;;;6.30;;
26598;SDS011;14240;51.064;16.612;2023-11-21T01:21:47;23.02;;;5.78;;
26598;SDS011;14240;51.064;16.612;2023-11-21T01:24:13;17.25;;;7.97;;
26598;SDS011;14240;51.064;16.612;2023-11-21T01:26:38;16.40;;;7.55;;
26598;SDS011;14240;51.064;16.612;2023-11-21T01:29:04;15.40;;;6.15;;
26598;SDS011;14240;51.064;16.612;2023-11-21T01:31:30;14.95;;;5.97;;
26598;SDS011;14240;51.064;16.612;2023-11-21T01:33:57;14.00;;;6.20;;
26598;SDS011;14240;51.064;16.612;2023-11-21T01:36:29;16.25;;;6.75;;
26598;SDS011;14240;51.064;16.612;2023-11-21T01:38:57;20.63;;;6.43;;
26598;SDS011;14240;51.064;16.612;2023-11-21T01:41:24;19.08;;;6.57;;
26598;SDS011;14240;51.064;16.612;2023-11-21T01:46:19;19.10;;;5.90;;
26598;SDS011;14240;51.064;16.612;2023-11-21T01:48:45;17.27;;;7.40;;
26598;SDS011;14240;51.064;16.612;2023-11-21T01:51:13;12.98;;;5.90;;
26598;SDS011;14240;51.064;16.612;2023-11-21T01:53:39;18.67;;;6.18;;
26598;SDS011;14240;51.064;16.612;2023-11-21T01:56:05;17.35;;;6.03;;
26598;SDS011;14240;51.064;16.612;2023-11-21T01:58:33;23.00;;;7.18;;
26598;SDS011;14240;51.064;16.612;2023-11-21T02:00:59;17.67;;;6.38;;
26598;SDS011;14240;51.064;16.612;2023-11-21T02:03:24;15.10;;;6.57;;
26598;SDS011;14240;51.064;16.612;2023-11-21T02:05:52;12.98;;;6.72;;
26598;SDS011;14240;51.064;16.612;2023-11-21T02:08:18;19.00;;;7.05;;
26598;SDS011;14240;51.064;16.612;2023-11-21T02:10:44;23.15;;;9.82;;
26598;SDS011;14240;51.064;16.612;2023-11-21T02:13:10;25.00;;;8.40;;
26598;SDS011;14240;51.064;16.612;2023-11-21T02:15:36;16.65;;;7.65;;
26598;SDS011;14240;51.064;16.612;2023-11-21T02:18:03;16.20;;;6.85;;
26598;SDS011;14240;51.064;16.612;2023-11-21T02:20:31;18.23;;;6.47;;
26598;SDS011;14240;51.064;16.612;2023-11-21T02:22:59;13.57;;;6.00;;
26598;SDS011;14240;51.064;16.612;2023-11-21T02:27:53;18.80;;;6.03;;
26598;SDS011;14240;51.064;16.612;2023-11-21T02:30:20;15.98;;;6.43;;
26598;SDS011;14240;51.064;16.612;2023-11-21T02:32:47;16.33;;;5.78;;
26598;SDS011;14240;51.064;16.612;2023-11-21T02:35:13;18.85;;;7.05;;
26598;SDS011;14240;51.064;16.612;2023-11-21T02:37:41;19.85;;;7.53;;
26598;SDS011;14240;51.064;16.612;2023-11-21T02:40:08;18.40;;;6.70;;
26598;SDS011;14240;51.064;16.612;2023-11-21T02:42:35;17.80;;;6.55;;
26598;SDS011;14240;51.064;16.612;2023-11-21T02:45:00;14.23;;;6.00;;
26598;SDS011;14240;51.064;16.612;2023-11-21T02:47:26;12.20;;;5.70;;
26598;SDS011;14240;51.064;16.612;2023-11-21T02:49:52;22.58;;;7.25;;
26598;SDS011;14240;51.064;16.612;2023-11-21T02:52:18;15.60;;;5.93;;
26598;SDS011;14240;51.064;16.612;2023-11-21T02:54:44;16.23;;;6.80;;
26598;SDS011;14240;51.064;16.612;2023-11-21T02:57:10;20.52;;;6.80;;
26598;SDS011;14240;51.064;16.612;2023-11-21T02:59:35;24.23;;;10.05;;
26598;SDS011;14240;51.064;16.612;2023-11-21T03:02:01;14.52;;;6.07;;
26598;SDS011;14240;51.064;16.612;2023-11-21T03:04:27;15.18;;;6.22;;
26598;SDS011;14240;51.064;16.612;2023-11-21T03:06:52;15.30;;;6.10;;
26598;SDS011;14240;51.064;16.612;2023-11-21T03:09:18;17.63;;;5.15;;
26598;SDS011;14240;51.064;16.612;2023-11-21T03:11:44;15.80;;;5.78;;
26598;SDS011;14240;51.064;16.612;2023-11-21T03:14:10;13.63;;;5.47;;
26598;SDS011;14240;51.064;16.612;2023-11-21T03:16:36;14.43;;;5.72;;
26598;SDS011;14240;51.064;16.612;2023-11-21T03:19:03;14.82;;;6.45;;
26598;SDS011;14240;51.064;16.612;2023-11-21T03:21:30;15.57;;;6.25;;
26598;SDS011;14240;51.064;16.612;2023-11-21T03:23:56;22.02;;;6.43;;
26598;SDS011;14240;51.064;16.612;2023-11-21T03:26:21;13.57;;;6.35;;
26598;SDS011;14240;51.064;16.612;2023-11-21T03:28:47;21.90;;;5.35;;
26598;SDS011;14240;51.064;16.612;2023-11-21T03:31:13;14.55;;;4.75;;
26598;SDS011;14240;51.064;16.612;2023-11-21T03:33:38;12.65;;;4.85;;
26598;SDS011;14240;51.064;16.612;2023-11-21T03:36:04;13.43;;;5.47;;
26598;SDS011;14240;51.064;16.612;2023-11-21T03:38:32;12.65;;;5.22;;
26598;SDS011;14240;51.064;16.612;2023-11-21T03:40:58;16.15;;;5.53;;
26598;SDS011;14240;51.064;16.612;2023-11-21T03:43:24;8.93;;;4.70;;
26598;SDS011;14240;51.064;16.612;2023-11-21T03:45:50;16.77;;;5.80;;
26598;SDS011;14240;51.064;16.612;2023-11-21T03:48:15;16.33;;;6.38;;
26598;SDS011;14240;51.064;16.612;2023-11-21T03:50:41;18.00;;;6.20;;
26598;SDS011;14240;51.064;16.612;2023-11-21T03:53:07;14.88;;;5.78;;
26598;SDS011;14240;51.064;16.612;2023-11-21T03:55:32;14.68;;;6.75;;
26598;SDS011;14240;51.064;16.612;2023-11-21T03:57:58;17.00;;;7.78;;
26598;SDS011;14240;51.064;16.612;2023-11-21T04:00:24;12.45;;;5.72;;
26598;SDS011;14240;51.064;16.612;2023-11-21T04:02:52;10.73;;;4.80;;
26598;SDS011;14240;51.064;16.612;2023-11-21T04:05:19;16.88;;;5.53;;
26598;SDS011;14240;51.064;16.612;2023-11-21T04:07:46;13.18;;;4.53;;
26598;SDS011;14240;51.064;16.612;2023-11-21T04:10:13;13.13;;;4.80;;
26598;SDS011;14240;51.064;16.612;2023-11-21T04:12:38;11.07;;;4.93;;
26598;SDS011;14240;51.064;16.612;2023-11-21T04:15:04;10.02;;;5.60;;
26598;SDS011;14240;51.064;16.612;2023-11-21T04:17:30;13.05;;;4.93;;
26598;SDS011;14240;51.064;16.612;2023-11-21T04:19:56;10.73;;;5.20;;
26598;SDS011;14240;51.064;16.612;2023-11-21T04:22:22;9.30;;;5.10;;
26598;SDS011;14240;51.064;16.612;2023-11-21T04:24:47;15.30;;;5.57;;
26598;SDS011;14240;51.064;16.612;2023-11-21T04:27:14;14.88;;;5.13;;
26598;SDS011;14240;51.064;16.612;2023-11-21T04:29:39;9.73;;;4.63;;
26598;SDS011;14240;51.064;16.612;2023-11-21T04:32:06;17.17;;;5.82;;
26598;SDS011;14240;51.064;16.612;2023-11-21T04:34:33;12.73;;;5.00;;
26598;SDS011;14240;51.064;16.612;2023-11-21T04:36:59;14.38;;;6.07;;
26598;SDS011;14240;51.064;16.612;2023-11-21T04:39:29;19.90;;;8.07;;
26598;SDS011;14240;51.064;16.612;2023-11-21T04:41:57;21.08;;;7.05;;
26598;SDS011;14240;51.064;16.612;2023-11-21T04:44:23;13.02;;;5.82;;
26598;SDS011;14240;51.064;16.612;2023-11-21T04:46:48;11.13;;;5.93;;
26598;SDS011;14240;51.064;16.612;2023-11-21T04:49:14;12.50;;;4.97;;
26598;SDS011;14240;51.064;16.612;2023-11-21T04:51:40;19.08;;;6.60;;
26598;SDS011;14240;51.064;16.612;2023-11-21T04:54:05;18.20;;;5.70;;
26598;SDS011;14240;51.064;16.612;2023-11-21T04:56:31;18.88;;;6.55;;
26598;SDS011;14240;51.064;16.612;2023-11-21T04:58:57;14.32;;;5.35;;
26598;SDS011;14240;51.064;16.612;2023-11-21T05:01:23;16.33;;;6.30;;
26598;SDS011;14240;51.064;16.612;2023-11-21T05:03:48;14.40;;;6.63;;
26598;SDS011;14240;51.064;16.612;2023-11-21T05:06:14;17.35;;;7.20;;
26598;SDS011;14240;51.064;16.612;2023-11-21T05:08:40;14.77;;;6.57;;
26598;SDS011;14240;51.064;16.612;2023-11-21T05:11:06;15.27;;;6.57;;
26598;SDS011;14240;51.064;16.612;2023-11-21T05:13:36;16.80;;;6.32;;
26598;SDS011;14240;51.064;16.612;2023-11-21T05:16:02;19.10;;;6.60;;
26598;SDS011;14240;51.064;16.612;2023-11-21T05:18:32;17.05;;;7.82;;
26598;SDS011;14240;51.064;16.612;2023-11-21T05:20:59;17.03;;;7.67;;
26598;SDS011;14240;51.064;16.612;2023-11-21T05:23:25;13.68;;;6.47;;
26598;SDS011;14240;51.064;16.612;2023-11-21T05:25:51;21.17;;;7.63;;
26598;SDS011;14240;51.064;16.612;2023-11-21T05:28:17;27.20;;;8.25;;
26598;SDS011;14240;51.064;16.612;2023-11-21T05:30:42;16.75;;;6.82;;
26598;SDS011;14240;51.064;16.612;2023-11-21T05:33:09;17.30;;;6.38;;
26598;SDS011;14240;51.064;16.612;2023-11-21T05:35:34;15.25;;;7.22;;
26598;SDS011;14240;51.064;16.612;2023-11-21T05:38:00;15.98;;;7.55;;
26598;SDS011;14240;51.064;16.612;2023-11-21T05:40:26;16.38;;;7.03;;
26598;SDS011;14240;51.064;16.612;2023-11-21T05:42:54;12.98;;;6.28;;
26598;SDS011;14240;51.064;16.612;2023-11-21T05:45:21;14.48;;;6.30;;
26598;SDS011;14240;51.064;16.612;2023-11-21T05:47:46;19.25;;;6.57;;
26598;SDS011;14240;51.064;16.612;2023-11-21T05:50:13;15.88;;;6.40;;
26598;SDS011;14240;51.064;16.612;2023-11-21T05:52:41;18.48;;;7.25;;
26598;SDS011;14240;51.064;16.612;2023-11-21T05:55:08;22.70;;;6.88;;
26598;SDS011;14240;51.064;16.612;2023-11-21T05:57:34;21.48;;;7.47;;
26598;SDS011;14240;51.064;16.612;2023-11-21T06:00:05;14.68;;;7.18;;
26598;SDS011;14240;51.064;16.612;2023-11-21T06:02:44;17.77;;;6.95;;
26598;SDS011;14240;51.064;16.612;2023-11-21T06:05:11;16.42;;;6.53;;
26598;SDS011;14240;51.064;16.612;2023-11-21T06:07:37;15.77;;;7.82;;
26598;SDS011;14240;51.064;16.612;2023-11-21T06:10:04;23.83;;;7.57;;
26598;SDS011;14240;51.064;16.612;2023-11-21T06:12:37;14.75;;;7.13;;
26598;SDS011;14240;51.064;16.612;2023-11-21T06:15:05;15.25;;;5.97;;
26598;SDS011;14240;51.064;16.612;2023-11-21T06:17:34;16.95;;;6.35;;
26598;SDS011;14240;51.064;16.612;2023-11-21T06:20:04;20.45;;;7.57;;
26598;SDS011;14240;51.064;16.612;2023-11-21T06:22:38;25.92;;;9.65;;
26598;SDS011;14240;51.064;16.612;2023-11-21T06:25:04;18.58;;;6.95;;
26598;SDS011;14240;51.064;16.612;2023-11-21T06:27:41;19.70;;;6.47;;
26598;SDS011;14240;51.064;16.612;2023-11-21T06:30:09;21.05;;;8.18;;
26598;SDS011;14240;51.064;16.612;2023-11-21T06:32:36;22.02;;;6.60;;
26598;SDS011;14240;51.064;16.612;2023-11-21T06:35:03;18.33;;;7.57;;
26598;SDS011;14240;51.064;16.612;2023-11-21T06:37:30;19.60;;;6.93;;
26598;SDS011;14240;51.064;16.612;2023-11-21T06:40:01;22.88;;;7.78;;
26598;SDS011;14240;51.064;16.612;2023-11-21T06:42:28;23.20;;;8.50;;
26598;SDS011;14240;51.064;16.612;2023-11-21T06:44:54;25.63;;;8.82;;
26598;SDS011;14240;51.064;16.612;2023-11-21T06:47:22;19.73;;;8.88;;
26598;SDS011;14240;51.064;16.612;2023-11-21T06:49:50;25.88;;;9.88;;
26598;SDS011;14240;51.064;16.612;2023-11-21T06:52:17;30.47;;;9.50;;
26598;SDS011;14240;51.064;16.612;2023-11-21T06:54:43;28.77;;;13.18;;
26598;SDS011;14240;51.064;16.612;2023-11-21T06:57:10;27.13;;;11.45;;
26598;SDS011;14240;51.064;16.612;2023-11-21T06:59:36;27.50;;;11.48;;
26598;SDS011;14240;51.064;16.612;2023-11-21T07:02:02;28.50;;;14.15;;
26598;SDS011;14240;51.064;16.612;2023-11-21T07:04:28;28.02;;;13.88;;
26598;SDS011;14240;51.064;16.612;2023-11-21T07:06:54;29.33;;;12.85;;
26598;SDS011;14240;51.064;16.612;2023-11-21T07:09:20;29.25;;;11.52;;
26598;SDS011;14240;51.064;16.612;2023-11-21T07:11:48;33.17;;;14.98;;
26598;SDS011;14240;51.064;16.612;2023-11-21T07:14:15;34.33;;;12.48;;
26598;SDS011;14240;51.064;16.612;2023-11-21T07:16:42;27.67;;;11.70;;
26598;SDS011;14240;51.064;16.612;2023-11-21T07:19:07;30.13;;;11.85;;
26598;SDS011;14240;51.064;16.612;2023-11-21T07:21:34;35.78;;;14.48;;
26598;SDS011;14240;51.064;16.612;2023-11-21T07:24:01;31.08;;;13.13;;
26598;SDS011;14240;51.064;16.612;2023-11-21T07:26:27;21.13;;;10.32;;
26598;SDS011;14240;51.064;16.612;2023-11-21T07:28:53;31.00;;;12.05;;
26598;SDS011;14240;51.064;16.612;2023-11-21T07:31:19;19.95;;;9.73;;
26598;SDS011;14240;51.064;16.612;2023-11-21T07:33:45;24.75;;;10.15;;
26598;SDS011;14240;51.064;16.612;2023-11-21T07:36:12;21.42;;;8.63;;
26598;SDS011;14240;51.064;16.612;2023-11-21T07:38:43;23.85;;;9.30;;
26598;SDS011;14240;51.064;16.612;2023-11-21T07:41:09;24.73;;;9.38;;
26598;SDS011;14240;51.064;16.612;2023-11-21T07:43:36;25.90;;;10.07;;
26598;SDS011;14240;51.064;16.612;2023-11-21T07:46:02;23.38;;;9.77;;
26598;SDS011;14240;51.064;16.612;2023-11-21T07:48:31;19.30;;;8.45;;
26598;SDS011;14240;51.064;16.612;2023-11-21T07:50:58;23.33;;;8.73;;
26598;SDS011;14240;51.064;16.612;2023-11-21T07:53:25;20.83;;;9.50;;
26598;SDS011;14240;51.064;16.612;2023-11-21T07:55:53;22.20;;;8.80;;
26598;SDS011;14240;51.064;16.612;2023-11-21T07:58:19;20.30;;;7.63;;
26598;SDS011;14240;51.064;16.612;2023-11-21T08:00:45;18.40;;;7.60;;
26598;SDS011;14240;51.064;16.612;2023-11-21T08:03:13;17.33;;;9.18;;
26598;SDS011;14240;51.064;16.612;2023-11-21T08:05:39;33.58;;;20.00;;
26598;SDS011;14240;51.064;16.612;2023-11-21T08:08:05;17.65;;;9.73;;
26598;SDS011;14240;51.064;16.612;2023-11-21T08:10:31;26.20;;;10.55;;
26598;SDS011;14240;51.064;16.612;2023-11-21T08:12:57;19.23;;;8.32;;
26598;SDS011;14240;51.064;16.612;2023-11-21T08:15:23;18.45;;;7.45;;
26598;SDS011;14240;51.064;16.612;2023-11-21T08:17:49;16.95;;;7.07;;
26598;SDS011;14240;51.064;16.612;2023-11-21T08:20:14;18.15;;;8.70;;
26598;SDS011;14240;51.064;16.612;2023-11-21T08:22:41;13.27;;;6.18;;
26598;SDS011;14240;51.064;16.612;2023-11-21T08:25:10;15.80;;;6.50;;
26598;SDS011;14240;51.064;16.612;2023-11-21T08:27:36;14.77;;;5.18;;
26598;SDS011;14240;51.064;16.612;2023-11-21T08:30:05;18.80;;;6.25;;
26598;SDS011;14240;51.064;16.612;2023-11-21T08:32:32;11.00;;;5.05;;
26598;SDS011;14240;51.064;16.612;2023-11-21T08:35:01;14.25;;;5.05;;
26598;SDS011;14240;51.064;16.612;2023-11-21T08:37:26;12.77;;;5.28;;
26598;SDS011;14240;51.064;16.612;2023-11-21T08:39:55;16.88;;;5.72;;
26598;SDS011;14240;51.064;16.612;2023-11-21T08:44:48;15.73;;;4.82;;
26598;SDS011;14240;51.064;16.612;2023-11-21T08:47:14;15.45;;;5.40;;
26598;SDS011;14240;51.064;16.612;2023-11-21T08:49:39;18.67;;;6.00;;
26598;SDS011;14240;51.064;16.612;2023-11-21T08:52:05;16.08;;;5.80;;
26598;SDS011;14240;51.064;16.612;2023-11-21T08:54:31;15.98;;;5.80;;
26598;SDS011;14240;51.064;16.612;2023-11-21T08:56:57;13.10;;;6.13;;
26598;SDS011;14240;51.064;16.612;2023-11-21T08:59:26;13.93;;;6.20;;
26598;SDS011;14240;51.064;16.612;2023-11-21T09:01:51;11.75;;;5.82;;
26598;SDS011;14240;51.064;16.612;2023-11-21T09:04:17;14.38;;;5.80;;
26598;SDS011;14240;51.064;16.612;2023-11-21T09:06:43;14.20;;;4.82;;
26598;SDS011;14240;51.064;16.612;2023-11-21T09:09:09;11.20;;;5.22;;
26598;SDS011;14240;51.064;16.612;2023-11-21T09:11:36;13.43;;;5.43;;
26598;SDS011;14240;51.064;16.612;2023-11-21T09:14:02;12.95;;;5.30;;
26598;SDS011;14240;51.064;16.612;2023-11-21T09:16:28;11.98;;;5.15;;
26598;SDS011;14240;51.064;16.612;2023-11-21T09:18:54;15.27;;;5.03;;
26598;SDS011;14240;51.064;16.612;2023-11-21T09:21:20;12.68;;;5.82;;
26598;SDS011;14240;51.064;16.612;2023-11-21T09:23:45;13.43;;;5.63;;
26598;SDS011;14240;51.064;16.612;2023-11-21T09:26:11;9.18;;;4.80;;
26598;SDS011;14240;51.064;16.612;2023-11-21T09:28:37;10.02;;;5.07;;
26598;SDS011;14240;51.064;16.612;2023-11-21T09:31:04;12.00;;;5.68;;
26598;SDS011;14240;51.064;16.612;2023-11-21T09:33:30;12.00;;;4.82;;
26598;SDS011;14240;51.064;16.612;2023-11-21T09:35:56;12.25;;;5.38;;
26598;SDS011;14240;51.064;16.612;2023-11-21T09:38:22;12.10;;;5.95;;
26598;SDS011;14240;51.064;16.612;2023-11-21T09:40:48;10.13;;;4.88;;
26598;SDS011;14240;51.064;16.612;2023-11-21T09:43:18;12.45;;;5.75;;
26598;SDS011;14240;51.064;16.612;2023-11-21T09:45:48;13.40;;;5.57;;
26598;SDS011;14240;51.064;16.612;2023-11-21T09:48:30;12.32;;;4.80;;
26598;SDS011;14240;51.064;16.612;2023-11-21T09:50:57;9.68;;;5.30;;
26598;SDS011;14240;51.064;16.612;2023-11-21T09:53:25;11.20;;;4.85;;
26598;SDS011;14240;51.064;16.612;2023-11-21T09:55:55;13.25;;;5.65;;
26598;SDS011;14240;51.064;16.612;2023-11-21T09:58:21;14.68;;;5.35;;
26598;SDS011;14240;51.064;16.612;2023-11-21T10:00:52;9.70;;;4.40;;
26598;SDS011;14240;51.064;16.612;2023-11-21T10:03:18;10.63;;;5.25;;
26598;SDS011;14240;51.064;16.612;2023-11-21T10:05:45;8.80;;;4.32;;
26598;SDS011;14240;51.064;16.612;2023-11-21T10:08:11;8.05;;;4.22;;
26598;SDS011;14240;51.064;16.612;2023-11-21T10:10:37;7.53;;;4.05;;
26598;SDS011;14240;51.064;16.612;2023-11-21T10:13:09;10.43;;;4.45;;
26598;SDS011;14240;51.064;16.612;2023-11-21T10:15:37;10.30;;;4.63;;
26598;SDS011;14240;51.064;16.612;2023-11-21T10:18:04;8.70;;;5.15;;
26598;SDS011;14240;51.064;16.612;2023-11-21T10:20:32;9.77;;;4.70;;
26598;SDS011;14240;51.064;16.612;2023-11-21T10:23:03;7.28;;;4.63;;
26598;SDS011;14240;51.064;16.612;2023-11-21T10:25:29;12.65;;;5.40;;
26598;SDS011;14240;51.064;16.612;2023-11-21T10:27:59;9.27;;;4.70;;
26598;SDS011;14240;51.064;16.612;2023-11-21T10:30:36;7.93;;;4.28;;
26598;SDS011;14240;51.064;16.612;2023-11-21T10:33:03;7.25;;;4.65;;
26598;SDS011;14240;51.064;16.612;2023-11-21T10:38:26;6.60;;;4.53;;
26598;SDS011;14240;51.064;16.612;2023-11-21T10:40:53;8.88;;;4.72;;
26598;SDS011;14240;51.064;16.612;2023-11-21T10:43:20;10.05;;;5.68;;
26598;SDS011;14240;51.064;16.612;2023-11-21T10:45:50;9.57;;;4.55;;
26598;SDS011;14240;51.064;16.612;2023-11-21T10:48:16;7.15;;;4.60;;
26598;SDS011;14240;51.064;16.612;2023-11-21T10:50:42;7.63;;;4.90;;
26598;SDS011;14240;51.064;16.612;2023-11-21T10:53:09;8.90;;;5.43;;
26598;SDS011;14240;51.064;16.612;2023-11-21T10:55:36;9.40;;;5.15;;
26598;SDS011;14240;51.064;16.612;2023-11-21T10:58:03;10.57;;;5.07;;
26598;SDS011;14240;51.064;16.612;2023-11-21T11:00:30;7.20;;;4.60;;
26598;SDS011;14240;51.064;16.612;2023-11-21T11:02:57;8.25;;;4.95;;
26598;SDS011;14240;51.064;16.612;2023-11-21T11:05:24;9.93;;;4.87;;
26598;SDS011;14240;51.064;16.612;2023-11-21T11:08:07;6.63;;;4.97;;
26598;SDS011;14240;51.064;16.612;2023-11-21T11:10:35;6.30;;;4.57;;
26598;SDS011;14240;51.064;16.612;2023-11-21T11:13:01;9.13;;;5.07;;
26598;SDS011;14240;51.064;16.612;2023-11-21T11:15:27;7.35;;;4.20;;
26598;SDS011;14240;51.064;16.612;2023-11-21T11:17:54;7.93;;;5.00;;
26598;SDS011;14240;51.064;16.612;2023-11-21T11:20:23;9.15;;;4.72;;
26598;SDS011;14240;51.064;16.612;2023-11-21T11:28:17;7.45;;;4.50;;
26598;SDS011;14240;51.064;16.612;2023-11-21T11:35:57;9.02;;;4.65;;
26598;SDS011;14240;51.064;16.612;2023-11-21T11:38:33;8.20;;;4.88;;
26598;SDS011;14240;51.064;16.612;2023-11-21T11:41:04;29.15;;;8.65;;
26598;SDS011;14240;51.064;16.612;2023-11-21T11:43:30;13.00;;;7.15;;
26598;SDS011;14240;51.064;16.612;2023-11-21T11:46:09;21.20;;;11.60;;
26598;SDS011;14240;51.064;16.612;2023-11-21T11:48:38;20.70;;;11.75;;
26598;SDS011;14240;51.064;16.612;2023-11-21T11:51:10;23.25;;;11.70;;
26598;SDS011;14240;51.064;16.612;2023-11-21T11:53:43;23.35;;;12.07;;
26598;SDS011;14240;51.064;16.612;2023-11-21T11:56:21;28.00;;;12.63;;
26598;SDS011;14240;51.064;16.612;2023-11-21T11:58:53;25.75;;;12.25;;
26598;SDS011;14240;51.064;16.612;2023-11-21T12:01:20;27.25;;;12.15;;
26598;SDS011;14240;51.064;16.612;2023-11-21T12:06:59;24.02;;;12.50;;
26598;SDS011;14240;51.064;16.612;2023-11-21T12:09:27;24.42;;;13.65;;
26598;SDS011;14240;51.064;16.612;2023-11-21T12:11:55;22.85;;;12.20;;
26598;SDS011;14240;51.064;16.612;2023-11-21T12:14:25;21.52;;;11.60;;
26598;SDS011;14240;51.064;16.612;2023-11-21T12:16:50;22.83;;;11.73;;
26598;SDS011;14240;51.064;16.612;2023-11-21T12:19:17;19.80;;;10.77;;
26598;SDS011;14240;51.064;16.612;2023-11-21T12:21:43;21.45;;;10.63;;
26598;SDS011;14240;51.064;16.612;2023-11-21T12:24:13;24.20;;;11.23;;
26598;SDS011;14240;51.064;16.612;2023-11-21T12:26:41;20.67;;;10.85;;
26598;SDS011;14240;51.064;16.612;2023-11-21T12:29:07;21.85;;;10.90;;
26598;SDS011;14240;51.064;16.612;2023-11-21T12:31:34;21.95;;;11.15;;
26598;SDS011;14240;51.064;16.612;2023-11-21T12:34:00;21.48;;;10.57;;
26598;SDS011;14240;51.064;16.612;2023-11-21T12:36:26;23.45;;;11.73;;
26598;SDS011;14240;51.064;16.612;2023-11-21T12:38:54;19.95;;;11.23;;
26598;SDS011;14240;51.064;16.612;2023-11-21T12:41:19;21.80;;;12.68;;
26598;SDS011;14240;51.064;16.612;2023-11-21T12:43:46;24.77;;;12.30;;
26598;SDS011;14240;51.064;16.612;2023-11-21T12:46:13;26.98;;;12.93;;
26598;SDS011;14240;51.064;16.612;2023-11-21T12:48:39;27.55;;;10.95;;
26598;SDS011;14240;51.064;16.612;2023-11-21T12:51:09;18.35;;;10.32;;
26598;SDS011;14240;51.064;16.612;2023-11-21T12:53:43;20.20;;;10.95;;
26598;SDS011;14240;51.064;16.612;2023-11-21T12:56:13;21.65;;;9.88;;
26598;SDS011;14240;51.064;16.612;2023-11-21T12:58:44;17.58;;;8.85;;
26598;SDS011;14240;51.064;16.612;2023-11-21T13:01:12;17.92;;;8.80;;
26598;SDS011;14240;51.064;16.612;2023-11-21T13:03:43;17.40;;;8.75;;
26598;SDS011;14240;51.064;16.612;2023-11-21T13:06:12;17.50;;;8.68;;
26598;SDS011;14240;51.064;16.612;2023-11-21T13:08:38;21.83;;;10.02;;
26598;SDS011;14240;51.064;16.612;2023-11-21T13:11:04;19.35;;;9.40;;
26598;SDS011;14240;51.064;16.612;2023-11-21T13:13:31;20.98;;;10.85;;
26598;SDS011;14240;51.064;16.612;2023-11-21T13:15:59;24.33;;;11.27;;
26598;SDS011;14240;51.064;16.612;2023-11-21T13:18:27;20.70;;;10.20;;
26598;SDS011;14240;51.064;16.612;2023-11-21T13:20:53;29.25;;;10.13;;
26598;SDS011;14240;51.064;16.612;2023-11-21T13:23:20;20.17;;;10.80;;
26598;SDS011;14240;51.064;16.612;2023-11-21T13:25:47;22.73;;;10.32;;
26598;SDS011;14240;51.064;16.612;2023-11-21T13:28:14;29.90;;;12.80;;
26598;SDS011;14240;51.064;16.612;2023-11-21T13:30:40;28.10;;;11.98;;
26598;SDS011;14240;51.064;16.612;2023-11-21T13:33:07;27.38;;;12.13;;
26598;SDS011;14240;51.064;16.612;2023-11-21T13:35:34;28.85;;;13.77;;
26598;SDS011;14240;51.064;16.612;2023-11-21T13:38:11;21.92;;;12.25;;
26598;SDS011;14240;51.064;16.612;2023-11-21T13:40:38;27.00;;;12.60;;
26598;SDS011;14240;51.064;16.612;2023-11-21T13:43:08;26.90;;;11.93;;
26598;SDS011;14240;51.064;16.612;2023-11-21T13:45:38;29.75;;;12.50;;
26598;SDS011;14240;51.064;16.612;2023-11-21T13:48:07;20.15;;;10.90;;
26598;SDS011;14240;51.064;16.612;2023-11-21T13:50:38;17.15;;;9.85;;
26598;SDS011;14240;51.064;16.612;2023-11-21T13:53:20;21.20;;;9.77;;
26598;SDS011;14240;51.064;16.612;2023-11-21T13:55:49;16.20;;;9.32;;
26598;SDS011;14240;51.064;16.612;2023-11-21T13:58:26;23.80;;;11.95;;
26598;SDS011;14240;51.064;16.612;2023-11-21T14:01:09;24.50;;;12.85;;
26598;SDS011;14240;51.064;16.612;2023-11-21T14:03:59;22.38;;;12.15;;
26598;SDS011;14240;51.064;16.612;2023-11-21T14:06:47;26.13;;;13.13;;
26598;SDS011;14240;51.064;16.612;2023-11-21T14:09:16;20.83;;;11.57;;
26598;SDS011;14240;51.064;16.612;2023-11-21T14:11:54;20.10;;;12.25;;
26598;SDS011;14240;51.064;16.612;2023-11-21T14:14:22;22.25;;;11.70;;
26598;SDS011;14240;51.064;16.612;2023-11-21T14:16:51;26.55;;;13.90;;
26598;SDS011;14240;51.064;16.612;2023-11-21T14:19:18;21.17;;;12.45;;
26598;SDS011;14240;51.064;16.612;2023-11-21T14:21:44;24.67;;;12.80;;
26598;SDS011;14240;51.064;16.612;2023-11-21T14:24:10;23.17;;;11.80;;
26598;SDS011;14240;51.064;16.612;2023-11-21T14:26:39;20.13;;;11.70;;
26598;SDS011;14240;51.064;16.612;2023-11-21T14:29:06;24.20;;;13.75;;
26598;SDS011;14240;51.064;16.612;2023-11-21T14:31:33;16.30;;;10.48;;
26598;SDS011;14240;51.064;16.612;2023-11-21T14:33:59;27.52;;;15.27;;
26598;SDS011;14240;51.064;16.612;2023-11-21T14:36:27;26.25;;;14.55;;
26598;SDS011;14240;51.064;16.612;2023-11-21T14:38:53;28.33;;;15.55;;
26598;SDS011;14240;51.064;16.612;2023-11-21T14:41:19;23.65;;;13.88;;
26598;SDS011;14240;51.064;16.612;2023-11-21T14:43:45;28.60;;;15.20;;
26598;SDS011;14240;51.064;16.612;2023-11-21T14:46:14;28.40;;;17.48;;